Wetterdaten: Woche 17.05.10 - 23.05.10 (KW20)
Datum Zeit Temperatur Luftfeuchte Luftdruck Niederschlag Windrichtung Sonnenschein Solar Wind
17.05.2010 00:00 5,5 C 94 % 1019,6 hPa 0,0 l/m N 0,00 h 0 W/m 2,4 km/h (1 Bft)
17.05.2010 01:00 5,1 C 95 % 1019,7 hPa 0,0 l/m SO 0,00 h 0 W/m 5,1 km/h (1 Bft)
17.05.2010 02:00 5,1 C 96 % 1020,0 hPa 0,0 l/m SO 0,00 h 0 W/m 4,3 km/h (1 Bft)
17.05.2010 03:00 5,3 C 95 % 1020,1 hPa 0,0 l/m S-SW 0,00 h 0 W/m 4,4 km/h (1 Bft)
17.05.2010 04:00 5,4 C 95 % 1020,3 hPa 0,0 l/m S 0,00 h 0 W/m 4,9 km/h (1 Bft)
17.05.2010 05:00 5,4 C 94 % 1020,5 hPa 0,0 l/m S 0,00 h 6 W/m 4,3 km/h (1 Bft)
17.05.2010 06:00 5,4 C 95 % 1020,8 hPa 0,0 l/m S-SW 0,00 h 27 W/m 2,5 km/h (1 Bft)
17.05.2010 07:00 5,9 C 96 % 1021,0 hPa 0,0 l/m N 0,00 h 72 W/m 2,5 km/h (1 Bft)
17.05.2010 08:00 7,0 C 94 % 1021,3 hPa 0,0 l/m S-SW 0,33 h 246 W/m 3,9 km/h (1 Bft)
17.05.2010 09:00 10,4 C 84 % 1021,3 hPa 0,0 l/m S-SO 1,00 h 529 W/m 9,4 km/h (2 Bft)
17.05.2010 10:00 12,4 C 69 % 1021,1 hPa 0,0 l/m W 0,83 h 650 W/m 9,3 km/h (2 Bft)
17.05.2010 11:00 12,4 C 73 % 1021,0 hPa 0,0 l/m W-SW 0,17 h 223 W/m 12,9 km/h (3 Bft)
17.05.2010 12:00 11,6 C 78 % 1021,1 hPa 0,0 l/m W-SW 0,00 h 157 W/m 9,4 km/h (2 Bft)
17.05.2010 13:00 11,1 C 80 % 1021,2 hPa 0,0 l/m W-SW 0,00 h 277 W/m 15,4 km/h (3 Bft)
17.05.2010 14:00 12,9 C 75 % 1020,9 hPa 0,0 l/m W-SW 0,33 h 500 W/m 14,9 km/h (3 Bft)
17.05.2010 15:00 12,1 C 76 % 1020,9 hPa 0,2 l/m W-SW 0,00 h 134 W/m 14,2 km/h (3 Bft)
17.05.2010 16:00 11,8 C 75 % 1021,0 hPa 0,0 l/m W-SW 0,00 h 125 W/m 12,6 km/h (3 Bft)
17.05.2010 17:00 12,3 C 69 % 1021,3 hPa 0,0 l/m W 0,00 h 131 W/m 15,3 km/h (3 Bft)
17.05.2010 18:00 11,8 C 68 % 1021,4 hPa 0,0 l/m W-NW 0,00 h 112 W/m 13,1 km/h (3 Bft)
17.05.2010 19:00 11,8 C 69 % 1021,6 hPa 0,0 l/m W 0,00 h 81 W/m 7,6 km/h (2 Bft)
17.05.2010 20:00 11,1 C 76 % 1021,9 hPa 0,0 l/m W-SW 0,00 h 16 W/m 5,6 km/h (1 Bft)
17.05.2010 21:00 10,3 C 77 % 1022,4 hPa 0,0 l/m W-SW 0,00 h 0 W/m 9,9 km/h (2 Bft)
17.05.2010 22:00 10,0 C 79 % 1022,8 hPa 0,0 l/m W 0,00 h 0 W/m 8,5 km/h (2 Bft)
17.05.2010 23:00 9,9 C 80 % 1022,8 hPa 0,0 l/m W 0,00 h 0 W/m 5,2 km/h (1 Bft)
18.05.2010 00:00 9,4 C 86 % 1023,1 hPa 1,6 l/m N-NW 0,00 h 0 W/m 11,3 km/h (2 Bft)
18.05.2010 01:00 8,4 C 91 % 1023,2 hPa 0,2 l/m W 0,00 h 0 W/m 7,9 km/h (2 Bft)
18.05.2010 02:00 8,1 C 92 % 1023,3 hPa 0,0 l/m W-SW 0,00 h 0 W/m 4,1 km/h (1 Bft)
18.05.2010 03:00 7,8 C 92 % 1023,5 hPa 0,2 l/m W-SW 0,00 h 0 W/m 2,0 km/h (1 Bft)
18.05.2010 04:00 7,4 C 93 % 1023,6 hPa 0,0 l/m W 0,00 h 0 W/m 3,3 km/h (1 Bft)
18.05.2010 05:00 6,6 C 92 % 1024,0 hPa 0,0 l/m W-NW 0,00 h 9 W/m 4,5 km/h (1 Bft)
18.05.2010 06:00 5,8 C 92 % 1024,3 hPa 0,0 l/m N 0,33 h 58 W/m 1,3 km/h (1 Bft)
18.05.2010 07:00 6,4 C 94 % 1024,7 hPa 0,0 l/m W-NW 1,00 h 205 W/m 4,7 km/h (1 Bft)
18.05.2010 08:00 8,2 C 84 % 1025,1 hPa 0,0 l/m W-NW 1,00 h 353 W/m 11,6 km/h (2 Bft)
18.05.2010 09:00 9,3 C 75 % 1025,4 hPa 0,0 l/m NW 0,75 h 478 W/m 14,4 km/h (3 Bft)
18.05.2010 10:00 10,4 C 64 % 1025,3 hPa 0,0 l/m W-NW 0,75 h 639 W/m 15,3 km/h (3 Bft)
18.05.2010 11:00 11,0 C 58 % 1025,0 hPa 0,0 l/m W-NW 0,58 h 609 W/m 17,4 km/h (3 Bft)
18.05.2010 12:00 11,9 C 55 % 1024,6 hPa 0,0 l/m N-NW 0,67 h 680 W/m 16,6 km/h (3 Bft)
18.05.2010 13:00 12,0 C 55 % 1024,4 hPa 0,0 l/m NO 0,42 h 475 W/m 15,4 km/h (3 Bft)
18.05.2010 14:00 11,9 C 55 % 1024,3 hPa 0,0 l/m N-NO 0,17 h 303 W/m 14,2 km/h (3 Bft)
18.05.2010 15:00 12,0 C 55 % 1024,1 hPa 0,0 l/m N 0,33 h 503 W/m 14,1 km/h (3 Bft)
18.05.2010 16:00 12,1 C 53 % 1023,8 hPa 0,0 l/m N 0,00 h 187 W/m 13,7 km/h (3 Bft)
18.05.2010 17:00 11,9 C 53 % 1023,6 hPa 0,0 l/m N-NW 0,17 h 247 W/m 10,7 km/h (2 Bft)
18.05.2010 18:00 10,9 C 59 % 1023,7 hPa 0,0 l/m N 0,00 h 93 W/m 12,6 km/h (3 Bft)
18.05.2010 19:00 10,1 C 64 % 1023,6 hPa 0,0 l/m N 0,00 h 63 W/m 11,3 km/h (2 Bft)
18.05.2010 20:00 9,2 C 68 % 1023,8 hPa 0,0 l/m N-NW 0,08 h 18 W/m 7,6 km/h (2 Bft)
18.05.2010 21:00 8,0 C 75 % 1024,2 hPa 0,0 l/m N 0,00 h 0 W/m 2,4 km/h (1 Bft)
18.05.2010 22:00 6,3 C 84 % 1024,7 hPa 0,0 l/m O-NO 0,00 h 0 W/m 3,3 km/h (1 Bft)
18.05.2010 23:00 4,9 C 89 % 1024,6 hPa 0,0 l/m N 0,00 h 0 W/m 1,5 km/h (1 Bft)
19.05.2010 00:00 5,4 C 91 % 1024,2 hPa 0,0 l/m N 0,00 h 0 W/m 0,3 km/h (0 Bft)
19.05.2010 01:00 5,8 C 87 % 1024,1 hPa 0,0 l/m W 0,00 h 0 W/m 9,9 km/h (2 Bft)
19.05.2010 02:00 6,0 C 83 % 1023,6 hPa 0,0 l/m W-SW 0,00 h 0 W/m 5,5 km/h (1 Bft)
19.05.2010 03:00 5,0 C 87 % 1023,5 hPa 0,0 l/m W-NW 0,00 h 0 W/m 7,3 km/h (2 Bft)
19.05.2010 04:00 5,5 C 86 % 1023,3 hPa 0,0 l/m W-NW 0,00 h 0 W/m 7,8 km/h (2 Bft)
19.05.2010 05:00 5,2 C 86 % 1023,2 hPa 0,0 l/m NW 0,08 h 9 W/m 6,7 km/h (2 Bft)
19.05.2010 06:00 4,7 C 90 % 1023,3 hPa 0,0 l/m W 0,00 h 41 W/m 3,2 km/h (1 Bft)
19.05.2010 07:00 5,1 C 92 % 1023,8 hPa 0,0 l/m SW 0,00 h 44 W/m 4,9 km/h (1 Bft)
19.05.2010 08:00 5,4 C 91 % 1024,3 hPa 0,6 l/m SW 0,00 h 53 W/m 3,3 km/h (1 Bft)
19.05.2010 09:00 6,3 C 90 % 1024,4 hPa 0,0 l/m SW 0,58 h 351 W/m 8,2 km/h (2 Bft)
19.05.2010 10:00 8,5 C 80 % 1024,3 hPa 0,0 l/m W-NW 0,33 h 466 W/m 11,6 km/h (2 Bft)
19.05.2010 11:00 9,8 C 65 % 1024,3 hPa 0,0 l/m W 0,33 h 478 W/m 9,9 km/h (2 Bft)
19.05.2010 12:00 10,0 C 61 % 1024,2 hPa 0,0 l/m W 0,08 h 277 W/m 10,7 km/h (2 Bft)
19.05.2010 13:00 10,2 C 62 % 1024,2 hPa 0,0 l/m N 0,00 h 308 W/m 12,1 km/h (2 Bft)
19.05.2010 14:00 11,0 C 57 % 1023,9 hPa 0,0 l/m W 0,25 h 392 W/m 13,3 km/h (3 Bft)
19.05.2010 15:00 11,0 C 59 % 1023,9 hPa 0,0 l/m W-NW 0,00 h 213 W/m 12,1 km/h (2 Bft)
19.05.2010 16:00 10,3 C 68 % 1024,2 hPa 0,0 l/m W 0,00 h 104 W/m 11,0 km/h (2 Bft)
19.05.2010 17:00 8,5 C 83 % 1024,7 hPa 1,0 l/m N-NW 0,00 h 72 W/m 12,1 km/h (2 Bft)
19.05.2010 18:00 7,5 C 89 % 1025,0 hPa 0,2 l/m N-NW 0,00 h 48 W/m 6,6 km/h (2 Bft)
19.05.2010 19:00 7,3 C 89 % 1025,5 hPa 0,6 l/m W-NW 0,00 h 29 W/m 11,2 km/h (2 Bft)
19.05.2010 20:00 6,8 C 92 % 1025,7 hPa 0,6 l/m W-NW 0,00 h 10 W/m 7,9 km/h (2 Bft)
19.05.2010 21:00 6,6 C 93 % 1026,0 hPa 0,2 l/m W-NW 0,00 h 0 W/m 10,5 km/h (2 Bft)
19.05.2010 22:00 6,5 C 93 % 1026,1 hPa 0,2 l/m W-SW 0,00 h 0 W/m 9,3 km/h (2 Bft)
19.05.2010 23:00 6,4 C 93 % 1026,0 hPa 0,4 l/m W-SW 0,00 h 0 W/m 12,6 km/h (3 Bft)
20.05.2010 00:00 6,3 C 94 % 1026,0 hPa 0,8 l/m W-SW 0,00 h 0 W/m 11,7 km/h (2 Bft)
20.05.2010 01:00 6,3 C 95 % 1025,9 hPa 0,2 l/m W-SW 0,00 h 0 W/m 11,3 km/h (2 Bft)
20.05.2010 02:00 6,2 C 96 % 1025,6 hPa 0,0 l/m S-SW 0,00 h 0 W/m 11,0 km/h (2 Bft)
20.05.2010 03:00 6,3 C 96 % 1025,5 hPa 0,2 l/m W-SW 0,00 h 0 W/m 9,9 km/h (2 Bft)
20.05.2010 04:00 6,3 C 96 % 1025,7 hPa 0,4 l/m W-SW 0,00 h 0 W/m 8,4 km/h (2 Bft)
20.05.2010 05:00 6,4 C 97 % 1025,6 hPa 0,0 l/m W-SW 0,00 h 0 W/m 9,0 km/h (2 Bft)
20.05.2010 06:00 6,6 C 97 % 1025,7 hPa 0,0 l/m W-SW 0,00 h 22 W/m 10,3 km/h (2 Bft)
20.05.2010 07:00 6,8 C 97 % 1026,0 hPa 0,0 l/m W-SW 0,00 h 22 W/m 9,7 km/h (2 Bft)
20.05.2010 08:00 7,1 C 97 % 1026,2 hPa 0,2 l/m W-SW 0,00 h 44 W/m 8,6 km/h (2 Bft)
20.05.2010 09:00 7,5 C 97 % 1026,6 hPa 0,2 l/m W-SW 0,00 h 85 W/m 7,5 km/h (2 Bft)
20.05.2010 10:00 8,1 C 97 % 1026,8 hPa 0,4 l/m W 0,00 h 149 W/m 9,9 km/h (2 Bft)
20.05.2010 11:00 8,5 C 94 % 1026,8 hPa 0,0 l/m W 0,00 h 169 W/m 11,2 km/h (2 Bft)
20.05.2010 12:00 8,8 C 92 % 1026,8 hPa 0,0 l/m W 0,00 h 94 W/m 7,9 km/h (2 Bft)
20.05.2010 13:00 8,9 C 92 % 1026,9 hPa 0,0 l/m W 0,00 h 68 W/m 7,6 km/h (2 Bft)
20.05.2010 14:00 9,1 C 94 % 1026,8 hPa 0,2 l/m W-SW 0,00 h 80 W/m 5,9 km/h (2 Bft)
20.05.2010 15:00 9,1 C 94 % 1026,8 hPa 0,2 l/m SW 0,00 h 83 W/m 6,1 km/h (2 Bft)
20.05.2010 16:00 9,3 C 95 % 1027,0 hPa 0,2 l/m SW 0,00 h 66 W/m 5,3 km/h (1 Bft)
20.05.2010 17:00 9,3 C 95 % 1027,0 hPa 0,2 l/m SW 0,00 h 40 W/m 4,4 km/h (1 Bft)
20.05.2010 18:00 9,3 C 96 % 1027,0 hPa 0,2 l/m N 0,00 h 21 W/m 1,6 km/h (1 Bft)
20.05.2010 19:00 9,2 C 96 % 1027,0 hPa 0,4 l/m N 0,00 h 12 W/m 1,5 km/h (1 Bft)
20.05.2010 20:00 9,0 C 96 % 1027,1 hPa 0,0 l/m N-NO 0,00 h 7 W/m 4,7 km/h (1 Bft)
20.05.2010 21:00 8,8 C 96 % 1027,5 hPa 0,2 l/m N-NO 0,00 h 0 W/m 5,2 km/h (1 Bft)
20.05.2010 22:00 8,6 C 96 % 1027,8 hPa 0,0 l/m N-NO 0,00 h 0 W/m 2,8 km/h (1 Bft)
20.05.2010 23:00 8,5 C 97 % 1027,7 hPa 0,0 l/m N 0,00 h 0 W/m 4,5 km/h (1 Bft)
21.05.2010 00:00 8,3 C 97 % 1027,7 hPa 0,0 l/m N 0,00 h 0 W/m 3,3 km/h (1 Bft)
21.05.2010 01:00 8,3 C 97 % 1027,5 hPa 0,0 l/m N 0,00 h 0 W/m 2,3 km/h (1 Bft)
21.05.2010 02:00 8,3 C 97 % 1027,3 hPa 0,0 l/m N 0,00 h 0 W/m 0,0 km/h (0 Bft)
21.05.2010 03:00 8,3 C 97 % 1027,0 hPa 0,0 l/m N 0,00 h 0 W/m 0,0 km/h (0 Bft)
21.05.2010 04:00 8,2 C 97 % 1026,8 hPa 0,0 l/m N 0,00 h 0 W/m 1,9 km/h (1 Bft)
21.05.2010 05:00 8,2 C 98 % 1026,7 hPa 0,0 l/m N 0,00 h 0 W/m 1,3 km/h (1 Bft)
21.05.2010 06:00 8,3 C 98 % 1026,7 hPa 0,0 l/m N 0,00 h 21 W/m 1,5 km/h (1 Bft)
21.05.2010 07:00 8,6 C 98 % 1026,8 hPa 0,0 l/m N 0,00 h 50 W/m 1,1 km/h (0 Bft)
21.05.2010 08:00 9,1 C 98 % 1026,9 hPa 0,0 l/m N 0,00 h 107 W/m 1,5 km/h (1 Bft)
21.05.2010 09:00 9,8 C 96 % 1026,9 hPa 0,0 l/m N 0,00 h 162 W/m 2,4 km/h (1 Bft)
21.05.2010 10:00 10,7 C 91 % 1026,9 hPa 0,0 l/m O-NO 0,00 h 246 W/m 4,3 km/h (1 Bft)
21.05.2010 11:00 11,7 C 87 % 1026,8 hPa 0,0 l/m NO 0,00 h 315 W/m 6,5 km/h (2 Bft)
21.05.2010 12:00 12,5 C 82 % 1026,5 hPa 0,0 l/m NO 0,08 h 354 W/m 6,3 km/h (2 Bft)
21.05.2010 13:00 14,1 C 74 % 1026,1 hPa 0,0 l/m O-SO 0,50 h 635 W/m 7,9 km/h (2 Bft)
21.05.2010 14:00 13,5 C 79 % 1026,2 hPa 0,0 l/m N 0,00 h 203 W/m 10,7 km/h (2 Bft)
21.05.2010 15:00 13,8 C 78 % 1026,0 hPa 0,0 l/m N-NO 0,08 h 316 W/m 8,4 km/h (2 Bft)
21.05.2010 16:00 14,7 C 73 % 1025,8 hPa 0,0 l/m O-SO 0,00 h 296 W/m 8,0 km/h (2 Bft)
21.05.2010 17:00 14,9 C 73 % 1025,6 hPa 0,0 l/m NO 0,00 h 242 W/m 10,2 km/h (2 Bft)
21.05.2010 18:00 15,0 C 73 % 1025,2 hPa 0,0 l/m NO 0,42 h 222 W/m 11,0 km/h (2 Bft)
21.05.2010 19:00 14,7 C 75 % 1025,0 hPa 0,0 l/m NO 0,25 h 83 W/m 13,2 km/h (3 Bft)
21.05.2010 20:00 13,3 C 82 % 1025,2 hPa 0,0 l/m N-NO 0,00 h 17 W/m 10,7 km/h (2 Bft)
21.05.2010 21:00 12,0 C 87 % 1025,5 hPa 0,0 l/m NO 0,00 h 0 W/m 5,2 km/h (1 Bft)
21.05.2010 22:00 10,7 C 91 % 1025,8 hPa 0,0 l/m N 0,00 h 0 W/m 0,8 km/h (0 Bft)
21.05.2010 23:00 9,6 C 94 % 1025,7 hPa 0,0 l/m N 0,00 h 0 W/m 1,3 km/h (1 Bft)
22.05.2010 00:00 9,0 C 93 % 1025,5 hPa 0,0 l/m O-NO 0,00 h 0 W/m 3,2 km/h (1 Bft)
22.05.2010 01:00 8,4 C 94 % 1025,2 hPa 0,0 l/m NO 0,00 h 0 W/m 3,5 km/h (1 Bft)
22.05.2010 02:00 7,9 C 94 % 1024,7 hPa 0,0 l/m N 0,00 h 0 W/m 1,3 km/h (1 Bft)
22.05.2010 03:00 7,3 C 95 % 1024,4 hPa 0,0 l/m N-NW 0,00 h 0 W/m 3,2 km/h (1 Bft)
22.05.2010 04:00 7,7 C 97 % 1024,0 hPa 0,0 l/m N-NW 0,00 h 0 W/m 2,4 km/h (1 Bft)
22.05.2010 05:00 7,4 C 96 % 1023,9 hPa 0,0 l/m N-NW 0,00 h 8 W/m 5,1 km/h (1 Bft)
22.05.2010 06:00 7,3 C 97 % 1023,8 hPa 0,0 l/m N-NW 0,08 h 50 W/m 1,9 km/h (1 Bft)
22.05.2010 07:00 8,3 C 98 % 1023,8 hPa 0,0 l/m N-NW 0,50 h 174 W/m 3,7 km/h (1 Bft)
22.05.2010 08:00 11,1 C 95 % 1024,0 hPa 0,0 l/m N-NO 0,50 h 300 W/m 7,8 km/h (2 Bft)
22.05.2010 09:00 14,0 C 82 % 1023,7 hPa 0,0 l/m O-NO 0,92 h 546 W/m 13,8 km/h (3 Bft)
22.05.2010 10:00 15,4 C 70 % 1023,5 hPa 0,0 l/m NO 0,58 h 592 W/m 18,0 km/h (3 Bft)
22.05.2010 11:00 16,6 C 66 % 1023,2 hPa 0,0 l/m NO 0,50 h 665 W/m 16,0 km/h (3 Bft)
22.05.2010 12:00 17,8 C 60 % 1022,9 hPa 0,0 l/m NO 0,75 h 778 W/m 19,4 km/h (3 Bft)
22.05.2010 13:00 18,8 C 57 % 1022,4 hPa 0,0 l/m NO 1,00 h 933 W/m 18,0 km/h (3 Bft)
22.05.2010 14:00 19,6 C 53 % 1021,7 hPa 0,0 l/m O-NO 0,92 h 843 W/m 17,4 km/h (3 Bft)
22.05.2010 15:00 20,3 C 51 % 1021,2 hPa 0,0 l/m NO 1,00 h 802 W/m 16,6 km/h (3 Bft)
22.05.2010 16:00 20,7 C 47 % 1020,6 hPa 0,0 l/m O-NO 1,00 h 633 W/m 14,9 km/h (3 Bft)
22.05.2010 17:00 20,8 C 44 % 1020,1 hPa 0,0 l/m O-SO 1,00 h 490 W/m 14,9 km/h (3 Bft)
22.05.2010 18:00 20,5 C 46 % 1019,8 hPa 0,0 l/m O-NO 1,00 h 315 W/m 14,9 km/h (3 Bft)
22.05.2010 19:00 19,2 C 52 % 1019,7 hPa 0,0 l/m NO 0,25 h 70 W/m 11,3 km/h (2 Bft)
22.05.2010 20:00 16,7 C 65 % 1020,0 hPa 0,0 l/m N-NO 0,00 h 14 W/m 7,0 km/h (2 Bft)
22.05.2010 21:00 15,3 C 74 % 1020,3 hPa 0,0 l/m N-NW 0,00 h 0 W/m 3,3 km/h (1 Bft)
22.05.2010 22:00 12,8 C 86 % 1020,5 hPa 0,0 l/m N 0,00 h 0 W/m 1,9 km/h (1 Bft)
22.05.2010 23:00 11,9 C 88 % 1020,3 hPa 0,0 l/m N-NW 0,00 h 0 W/m 4,3 km/h (1 Bft)
23.05.2010 00:00 10,7 C 91 % 1020,3 hPa 0,0 l/m SO 0,00 h 0 W/m 2,7 km/h (1 Bft)
23.05.2010 01:00 10,2 C 93 % 1020,0 hPa 0,0 l/m NW 0,00 h 0 W/m 2,7 km/h (1 Bft)
23.05.2010 02:00 9,4 C 94 % 1019,8 hPa 0,0 l/m N 0,00 h 0 W/m 0,0 km/h (0 Bft)
23.05.2010 03:00 8,6 C 95 % 1019,7 hPa 0,0 l/m N 0,00 h 0 W/m 2,4 km/h (1 Bft)
23.05.2010 04:00 8,5 C 95 % 1019,5 hPa 0,0 l/m NW 0,00 h 0 W/m 1,7 km/h (1 Bft)
23.05.2010 05:00 7,6 C 96 % 1019,3 hPa 0,0 l/m NW 0,00 h 9 W/m 0,9 km/h (0 Bft)
23.05.2010 06:00 7,9 C 96 % 1019,3 hPa 0,0 l/m N 0,33 h 60 W/m 0,1 km/h (0 Bft)
23.05.2010 07:00 10,7 C 91 % 1019,4 hPa 0,0 l/m N 1,00 h 231 W/m 0,0 km/h (0 Bft)
23.05.2010 08:00 13,7 C 81 % 1019,6 hPa 0,0 l/m O-NO 1,00 h 408 W/m 0,9 km/h (0 Bft)
23.05.2010 09:00 15,5 C 73 % 1019,6 hPa 0,0 l/m N-NO 1,00 h 568 W/m 5,2 km/h (1 Bft)
23.05.2010 10:00 17,2 C 67 % 1019,4 hPa 0,0 l/m O-SO 1,00 h 713 W/m 7,5 km/h (2 Bft)
23.05.2010 11:00 19,1 C 56 % 1019,3 hPa 0,0 l/m O-NO 1,00 h 872 W/m 10,1 km/h (2 Bft)
23.05.2010 12:00 20,2 C 49 % 1019,1 hPa 0,0 l/m O-NO 1,00 h 900 W/m 13,7 km/h (3 Bft)
23.05.2010 13:00 20,8 C 48 % 1018,9 hPa 0,0 l/m O-NO 0,83 h 796 W/m 13,4 km/h (3 Bft)
23.05.2010 14:00 21,3 C 48 % 1018,5 hPa 0,0 l/m N-NO 0,83 h 832 W/m 11,0 km/h (2 Bft)
23.05.2010 15:00 21,4 C 48 % 1018,0 hPa 0,0 l/m N-NO 0,67 h 659 W/m 12,3 km/h (3 Bft)
23.05.2010 16:00 21,8 C 45 % 1017,6 hPa 0,0 l/m O-NO 0,92 h 631 W/m 14,6 km/h (3 Bft)
23.05.2010 17:00 21,7 C 45 % 1017,5 hPa 0,0 l/m O 0,92 h 496 W/m 14,1 km/h (3 Bft)
23.05.2010 18:00 21,6 C 43 % 1017,3 hPa 0,0 l/m N-NO 1,00 h 332 W/m 11,0 km/h (2 Bft)
23.05.2010 19:00 20,9 C 45 % 1017,2 hPa 0,0 l/m O-NO 0,33 h 94 W/m 12,0 km/h (2 Bft)
23.05.2010 20:00 18,9 C 54 % 1017,3 hPa 0,0 l/m O-NO 0,08 h 19 W/m 4,5 km/h (1 Bft)
23.05.2010 21:00 15,7 C 68 % 1017,4 hPa 0,0 l/m N 0,00 h 5 W/m 0,0 km/h (0 Bft)
23.05.2010 22:00 13,6 C 77 % 1017,8 hPa 0,0 l/m N 0,00 h 0 W/m 0,0 km/h (0 Bft)
23.05.2010 23:00 12,4 C 83 % 1017,8 hPa 0,0 l/m N 0,00 h 0 W/m 0,0 km/h (0 Bft)
Min-Datum _ 18.05.10 22.05.10 23.05.10 - - - - 17.05.10
_ Min-Zeit 23:45 17:55 19:10 - - - - 00:10
Minimum _ 4,5 C 42 % 1017,1 hPa - - - - 0,0 km/h (0 Bft)
Max-Datum _ 23.05.10 21.05.10 20.05.10 18.05.10 - 17.05.10 21.05.10 22.05.10
_ Max-Zeit 16:15 08:20 22:20 00:30 - 08:40 13:20 12:55
Maximum _ 22,3 C 100 % 1027,9 hPa 1,6 l/m - 0,08 h 1303 W/m 29,0 km/h
O-NO (5 Bft)
Durchschnitt _ 10,6 C 81 % 1023,4 hPa #10,0 l/m W-SW #33:50 h 272 W/m 7,7 km/h (2 Bft)